Hauptseite
METAR-TAF:

METAR-TAF

Flughäfen :

Maastricht Aachen Airport

Maastricht Aachen, Niederlande

Breite: 50-55N, Länge: 005-47E, Höhe: 114 m

Beobachtung

Neuester Wetterbericht von vor 29 Minuten, um 11:25 UTC
Wind 7 kt aus Süd, variierte zwischen Süd/Südost und Südwest
Temperatur 12°C
Luftfeuchtigkeit 71%
Luftdruck 1027 hPa
Sichtweite 10 km oder mehr

METAR: EHBK 141125Z AUTO 19007KT 150V220 9999 NSC 12/07 Q1027 NOSIG

Zeit: 12:54 (11:54 UTC)

Prognose

Neuester Wetterbericht von vor 56 Minuten, um 10:58 UTC
Gültige Prognose vom 14 um 12 UTC bis 15 um 18 UTC
Wind 7 kt aus Süd/Südost
Sichtweite 10 km oder mehr
keine Wolken unter 1500 m und keine Kumulonimbus oder Gewitterwolken

TAF: EHBK 141058Z 1412/1518 16007KT CAVOK

Wetterbeobachtungen und Prognosen von mehr als 4000 Flughäfen (METAR und TAF Bericht).

Die verfügbaren Stationen werden durch gelbe und rote Markierungen auf der Karte dargestellt.

Führen Sie die Maus auf sie, um den Namen der Station zu sehen.

Darauf klicken, um die Beobachtung von Wetterbeobachtungen und Prognosen zu sehen.

Um die Karte zu ändern : klicken Sie auf den grünen Tasten mit einem schwarzen Kreuz Zum Vergrößern, auf den grünen Button mit einem Gedankenstrich zu verkleinern, oder auf die grünen Pfeile für benachbarte Karten.


METAR-TAF: